sensor_id;sensor_type;location;lat;lon;timestamp;P1;durP1;ratioP1;P2;durP2;ratioP2
45466;SDS011;31212;49.734;8.490;2022-11-15T00:00:10;2.40;;;1.75;;
45466;SDS011;31212;49.734;8.490;2022-11-15T00:02:55;5.20;;;2.70;;
45466;SDS011;31212;49.734;8.490;2022-11-15T00:05:40;5.22;;;1.95;;
45466;SDS011;31212;49.734;8.490;2022-11-15T00:08:28;2.35;;;1.60;;
45466;SDS011;31212;49.734;8.490;2022-11-15T00:11:13;2.40;;;2.03;;
45466;SDS011;31212;49.734;8.490;2022-11-15T00:14:00;7.22;;;2.42;;
45466;SDS011;31212;49.734;8.490;2022-11-15T00:16:46;4.45;;;1.98;;
45466;SDS011;31212;49.734;8.490;2022-11-15T00:19:31;5.00;;;2.33;;
45466;SDS011;31212;49.734;8.490;2022-11-15T00:22:16;2.30;;;1.80;;
45466;SDS011;31212;49.734;8.490;2022-11-15T00:25:01;2.22;;;1.40;;
45466;SDS011;31212;49.734;8.490;2022-11-15T00:27:47;4.00;;;1.90;;
45466;SDS011;31212;49.734;8.490;2022-11-15T00:30:33;3.47;;;1.85;;
45466;SDS011;31212;49.734;8.490;2022-11-15T00:33:19;2.47;;;1.80;;
45466;SDS011;31212;49.734;8.490;2022-11-15T00:36:04;4.97;;;2.63;;
45466;SDS011;31212;49.734;8.490;2022-11-15T00:38:52;2.65;;;1.95;;
45466;SDS011;31212;49.734;8.490;2022-11-15T00:41:37;4.43;;;1.77;;
45466;SDS011;31212;49.734;8.490;2022-11-15T00:44:22;6.75;;;1.80;;
45466;SDS011;31212;49.734;8.490;2022-11-15T00:47:09;3.78;;;2.20;;
45466;SDS011;31212;49.734;8.490;2022-11-15T00:49:54;2.20;;;1.48;;
45466;SDS011;31212;49.734;8.490;2022-11-15T00:52:39;3.33;;;2.17;;
45466;SDS011;31212;49.734;8.490;2022-11-15T00:55:25;2.65;;;2.00;;
45466;SDS011;31212;49.734;8.490;2022-11-15T00:58:10;3.65;;;1.80;;
45466;SDS011;31212;49.734;8.490;2022-11-15T01:00:55;2.97;;;2.08;;
45466;SDS011;31212;49.734;8.490;2022-11-15T01:03:42;4.63;;;2.97;;
45466;SDS011;31212;49.734;8.490;2022-11-15T01:06:27;2.38;;;1.52;;
45466;SDS011;31212;49.734;8.490;2022-11-15T01:09:12;2.78;;;2.10;;
45466;SDS011;31212;49.734;8.490;2022-11-15T01:11:57;10.27;;;4.47;;
45466;SDS011;31212;49.734;8.490;2022-11-15T01:14:42;16.38;;;4.53;;
45466;SDS011;31212;49.734;8.490;2022-11-15T01:17:28;7.95;;;4.68;;
45466;SDS011;31212;49.734;8.490;2022-11-15T01:20:14;10.63;;;3.53;;
45466;SDS011;31212;49.734;8.490;2022-11-15T01:22:59;6.15;;;2.47;;
45466;SDS011;31212;49.734;8.490;2022-11-15T01:25:45;2.45;;;1.92;;
45466;SDS011;31212;49.734;8.490;2022-11-15T01:28:30;5.63;;;2.28;;
45466;SDS011;31212;49.734;8.490;2022-11-15T01:31:17;4.45;;;2.47;;
45466;SDS011;31212;49.734;8.490;2022-11-15T01:34:03;5.45;;;2.53;;
45466;SDS011;31212;49.734;8.490;2022-11-15T01:36:50;7.32;;;4.00;;
45466;SDS011;31212;49.734;8.490;2022-11-15T01:39:35;4.72;;;3.20;;
45466;SDS011;31212;49.734;8.490;2022-11-15T01:42:20;8.95;;;3.25;;
45466;SDS011;31212;49.734;8.490;2022-11-15T01:45:07;5.55;;;2.08;;
45466;SDS011;31212;49.734;8.490;2022-11-15T01:47:58;4.13;;;2.22;;
45466;SDS011;31212;49.734;8.490;2022-11-15T01:50:43;4.63;;;2.20;;
45466;SDS011;31212;49.734;8.490;2022-11-15T01:53:30;5.43;;;2.83;;
45466;SDS011;31212;49.734;8.490;2022-11-15T01:56:18;10.45;;;4.40;;
45466;SDS011;31212;49.734;8.490;2022-11-15T01:59:07;9.43;;;3.90;;
45466;SDS011;31212;49.734;8.490;2022-11-15T02:01:53;9.45;;;3.80;;
45466;SDS011;31212;49.734;8.490;2022-11-15T02:04:39;11.25;;;3.80;;
45466;SDS011;31212;49.734;8.490;2022-11-15T02:07:25;5.65;;;3.40;;
45466;SDS011;31212;49.734;8.490;2022-11-15T02:10:13;4.95;;;3.33;;
45466;SDS011;31212;49.734;8.490;2022-11-15T02:13:02;8.30;;;3.83;;
45466;SDS011;31212;49.734;8.490;2022-11-15T02:15:55;6.88;;;3.33;;
45466;SDS011;31212;49.734;8.490;2022-11-15T02:18:49;10.15;;;3.90;;
45466;SDS011;31212;49.734;8.490;2022-11-15T02:21:41;4.63;;;2.85;;
45466;SDS011;31212;49.734;8.490;2022-11-15T02:24:36;6.00;;;3.40;;
45466;SDS011;31212;49.734;8.490;2022-11-15T02:27:41;6.30;;;3.38;;
45466;SDS011;31212;49.734;8.490;2022-11-15T02:30:53;5.43;;;2.88;;
45466;SDS011;31212;49.734;8.490;2022-11-15T02:33:47;8.82;;;4.50;;
45466;SDS011;31212;49.734;8.490;2022-11-15T02:39:27;15.27;;;4.72;;
45466;SDS011;31212;49.734;8.490;2022-11-15T02:42:19;5.10;;;2.78;;
45466;SDS011;31212;49.734;8.490;2022-11-15T02:45:29;5.47;;;2.30;;
45466;SDS011;31212;49.734;8.490;2022-11-15T02:48:19;8.43;;;4.45;;
45466;SDS011;31212;49.734;8.490;2022-11-15T02:51:06;8.02;;;3.13;;
45466;SDS011;31212;49.734;8.490;2022-11-15T02:53:52;4.55;;;1.90;;
45466;SDS011;31212;49.734;8.490;2022-11-15T02:56:37;5.70;;;2.40;;
45466;SDS011;31212;49.734;8.490;2022-11-15T02:59:24;3.30;;;2.17;;
45466;SDS011;31212;49.734;8.490;2022-11-15T03:02:27;3.42;;;2.13;;
45466;SDS011;31212;49.734;8.490;2022-11-15T03:05:28;3.20;;;2.10;;
45466;SDS011;31212;49.734;8.490;2022-11-15T03:08:22;3.78;;;2.10;;
45466;SDS011;31212;49.734;8.490;2022-11-15T03:11:16;6.70;;;2.50;;
45466;SDS011;31212;49.734;8.490;2022-11-15T03:14:06;2.70;;;1.73;;
45466;SDS011;31212;49.734;8.490;2022-11-15T03:16:58;5.88;;;2.45;;
45466;SDS011;31212;49.734;8.490;2022-11-15T03:19:50;3.47;;;2.13;;
45466;SDS011;31212;49.734;8.490;2022-11-15T03:22:42;3.75;;;1.85;;
45466;SDS011;31212;49.734;8.490;2022-11-15T03:25:30;4.22;;;2.17;;
45466;SDS011;31212;49.734;8.490;2022-11-15T03:28:19;6.20;;;2.42;;
45466;SDS011;31212;49.734;8.490;2022-11-15T03:31:07;3.83;;;2.10;;
45466;SDS011;31212;49.734;8.490;2022-11-15T03:34:10;4.70;;;2.03;;
45466;SDS011;31212;49.734;8.490;2022-11-15T03:37:01;1.90;;;1.40;;
45466;SDS011;31212;49.734;8.490;2022-11-15T03:39:48;3.08;;;2.13;;
45466;SDS011;31212;49.734;8.490;2022-11-15T03:42:35;2.40;;;1.55;;
45466;SDS011;31212;49.734;8.490;2022-11-15T03:45:25;2.70;;;1.92;;
45466;SDS011;31212;49.734;8.490;2022-11-15T03:48:14;6.50;;;1.95;;
45466;SDS011;31212;49.734;8.490;2022-11-15T03:51:03;2.45;;;2.13;;
45466;SDS011;31212;49.734;8.490;2022-11-15T03:53:49;4.18;;;2.65;;
45466;SDS011;31212;49.734;8.490;2022-11-15T03:56:36;5.30;;;1.63;;
45466;SDS011;31212;49.734;8.490;2022-11-15T03:59:21;3.88;;;2.33;;
45466;SDS011;31212;49.734;8.490;2022-11-15T04:02:07;5.88;;;2.00;;
45466;SDS011;31212;49.734;8.490;2022-11-15T04:04:52;4.55;;;2.13;;
45466;SDS011;31212;49.734;8.490;2022-11-15T04:07:37;5.57;;;2.30;;
45466;SDS011;31212;49.734;8.490;2022-11-15T04:10:22;3.65;;;2.00;;
45466;SDS011;31212;49.734;8.490;2022-11-15T04:13:09;4.95;;;2.72;;
45466;SDS011;31212;49.734;8.490;2022-11-15T04:15:54;2.50;;;2.25;;
45466;SDS011;31212;49.734;8.490;2022-11-15T04:18:40;4.68;;;1.83;;
45466;SDS011;31212;49.734;8.490;2022-11-15T04:21:25;3.78;;;2.25;;
45466;SDS011;31212;49.734;8.490;2022-11-15T04:24:28;11.40;;;2.58;;
45466;SDS011;31212;49.734;8.490;2022-11-15T04:27:13;4.60;;;2.00;;
45466;SDS011;31212;49.734;8.490;2022-11-15T04:30:00;8.05;;;1.63;;
45466;SDS011;31212;49.734;8.490;2022-11-15T04:32:46;3.75;;;1.77;;
45466;SDS011;31212;49.734;8.490;2022-11-15T04:35:31;4.75;;;2.25;;
45466;SDS011;31212;49.734;8.490;2022-11-15T04:38:17;3.90;;;1.92;;
45466;SDS011;31212;49.734;8.490;2022-11-15T04:41:01;4.65;;;2.90;;
45466;SDS011;31212;49.734;8.490;2022-11-15T04:43:46;4.57;;;2.45;;
45466;SDS011;31212;49.734;8.490;2022-11-15T04:46:32;7.97;;;2.67;;
45466;SDS011;31212;49.734;8.490;2022-11-15T04:49:18;7.18;;;3.17;;
45466;SDS011;31212;49.734;8.490;2022-11-15T04:52:03;3.63;;;2.50;;
45466;SDS011;31212;49.734;8.490;2022-11-15T04:54:48;4.28;;;3.22;;
45466;SDS011;31212;49.734;8.490;2022-11-15T04:57:33;1.75;;;1.58;;
45466;SDS011;31212;49.734;8.490;2022-11-15T05:00:19;2.95;;;2.13;;
45466;SDS011;31212;49.734;8.490;2022-11-15T05:03:05;5.53;;;2.33;;
45466;SDS011;31212;49.734;8.490;2022-11-15T05:06:16;3.42;;;1.90;;
45466;SDS011;31212;49.734;8.490;2022-11-15T05:09:01;5.13;;;2.75;;
45466;SDS011;31212;49.734;8.490;2022-11-15T05:11:47;3.90;;;2.50;;
45466;SDS011;31212;49.734;8.490;2022-11-15T05:14:33;6.15;;;2.55;;
45466;SDS011;31212;49.734;8.490;2022-11-15T05:17:18;6.18;;;2.10;;
45466;SDS011;31212;49.734;8.490;2022-11-15T05:20:06;5.45;;;3.20;;
45466;SDS011;31212;49.734;8.490;2022-11-15T05:22:52;7.88;;;4.22;;
45466;SDS011;31212;49.734;8.490;2022-11-15T05:25:39;4.60;;;2.30;;
45466;SDS011;31212;49.734;8.490;2022-11-15T05:28:24;3.45;;;2.78;;
45466;SDS011;31212;49.734;8.490;2022-11-15T05:31:10;6.40;;;2.58;;
45466;SDS011;31212;49.734;8.490;2022-11-15T05:33:58;6.63;;;2.80;;
45466;SDS011;31212;49.734;8.490;2022-11-15T05:36:46;6.53;;;2.78;;
45466;SDS011;31212;49.734;8.490;2022-11-15T05:39:35;6.90;;;3.03;;
45466;SDS011;31212;49.734;8.490;2022-11-15T05:42:20;6.65;;;3.00;;
45466;SDS011;31212;49.734;8.490;2022-11-15T05:45:06;4.65;;;2.83;;
45466;SDS011;31212;49.734;8.490;2022-11-15T05:47:53;3.13;;;2.22;;
45466;SDS011;31212;49.734;8.490;2022-11-15T05:50:41;3.47;;;2.20;;
45466;SDS011;31212;49.734;8.490;2022-11-15T05:53:30;3.40;;;1.52;;
45466;SDS011;31212;49.734;8.490;2022-11-15T05:56:16;2.28;;;2.05;;
45466;SDS011;31212;49.734;8.490;2022-11-15T05:59:01;2.67;;;2.00;;
45466;SDS011;31212;49.734;8.490;2022-11-15T06:01:47;4.57;;;2.00;;
45466;SDS011;31212;49.734;8.490;2022-11-15T06:04:33;4.20;;;2.55;;
45466;SDS011;31212;49.734;8.490;2022-11-15T06:07:18;6.53;;;2.38;;
45466;SDS011;31212;49.734;8.490;2022-11-15T06:10:05;6.10;;;3.10;;
45466;SDS011;31212;49.734;8.490;2022-11-15T06:13:01;4.07;;;2.28;;
45466;SDS011;31212;49.734;8.490;2022-11-15T06:15:48;4.70;;;2.95;;
45466;SDS011;31212;49.734;8.490;2022-11-15T06:18:33;8.23;;;3.55;;
45466;SDS011;31212;49.734;8.490;2022-11-15T06:21:19;6.50;;;2.40;;
45466;SDS011;31212;49.734;8.490;2022-11-15T06:24:13;4.72;;;2.78;;
45466;SDS011;31212;49.734;8.490;2022-11-15T06:26:59;5.05;;;2.47;;
45466;SDS011;31212;49.734;8.490;2022-11-15T06:29:46;6.80;;;2.90;;
45466;SDS011;31212;49.734;8.490;2022-11-15T06:32:32;4.28;;;2.58;;
45466;SDS011;31212;49.734;8.490;2022-11-15T06:35:17;4.63;;;3.22;;
45466;SDS011;31212;49.734;8.490;2022-11-15T06:38:03;3.65;;;2.33;;
45466;SDS011;31212;49.734;8.490;2022-11-15T06:40:49;4.43;;;2.75;;
45466;SDS011;31212;49.734;8.490;2022-11-15T06:43:36;4.32;;;2.55;;
45466;SDS011;31212;49.734;8.490;2022-11-15T06:46:21;6.03;;;2.80;;
45466;SDS011;31212;49.734;8.490;2022-11-15T06:49:06;11.75;;;3.50;;
45466;SDS011;31212;49.734;8.490;2022-11-15T06:51:52;5.90;;;2.85;;
45466;SDS011;31212;49.734;8.490;2022-11-15T06:54:37;4.55;;;2.85;;
45466;SDS011;31212;49.734;8.490;2022-11-15T06:57:25;5.18;;;3.00;;
45466;SDS011;31212;49.734;8.490;2022-11-15T07:00:13;6.57;;;3.75;;
45466;SDS011;31212;49.734;8.490;2022-11-15T07:02:59;4.35;;;3.05;;
45466;SDS011;31212;49.734;8.490;2022-11-15T07:05:49;4.63;;;2.75;;
45466;SDS011;31212;49.734;8.490;2022-11-15T07:08:36;6.03;;;2.40;;
45466;SDS011;31212;49.734;8.490;2022-11-15T07:11:21;4.50;;;2.25;;
45466;SDS011;31212;49.734;8.490;2022-11-15T07:14:07;6.07;;;3.00;;
45466;SDS011;31212;49.734;8.490;2022-11-15T07:16:53;3.60;;;2.45;;
45466;SDS011;31212;49.734;8.490;2022-11-15T07:19:39;10.05;;;2.58;;
45466;SDS011;31212;49.734;8.490;2022-11-15T07:22:24;3.70;;;2.10;;
45466;SDS011;31212;49.734;8.490;2022-11-15T07:25:09;9.93;;;2.63;;
45466;SDS011;31212;49.734;8.490;2022-11-15T07:27:54;8.10;;;3.40;;
45466;SDS011;31212;49.734;8.490;2022-11-15T07:30:40;4.28;;;1.73;;
45466;SDS011;31212;49.734;8.490;2022-11-15T07:33:26;3.50;;;1.98;;
45466;SDS011;31212;49.734;8.490;2022-11-15T07:36:12;5.03;;;1.98;;
45466;SDS011;31212;49.734;8.490;2022-11-15T07:38:57;4.07;;;2.20;;
45466;SDS011;31212;49.734;8.490;2022-11-15T07:41:42;5.45;;;2.03;;
45466;SDS011;31212;49.734;8.490;2022-11-15T07:44:28;3.72;;;2.22;;
45466;SDS011;31212;49.734;8.490;2022-11-15T07:47:13;4.47;;;2.33;;
45466;SDS011;31212;49.734;8.490;2022-11-15T07:50:00;9.93;;;3.60;;
45466;SDS011;31212;49.734;8.490;2022-11-15T07:52:46;3.33;;;2.17;;
45466;SDS011;31212;49.734;8.490;2022-11-15T07:55:30;5.90;;;2.90;;
45466;SDS011;31212;49.734;8.490;2022-11-15T07:58:16;5.45;;;2.95;;
45466;SDS011;31212;49.734;8.490;2022-11-15T08:01:02;4.38;;;2.53;;
45466;SDS011;31212;49.734;8.490;2022-11-15T08:03:47;4.38;;;2.83;;
45466;SDS011;31212;49.734;8.490;2022-11-15T08:06:34;6.40;;;3.63;;
45466;SDS011;31212;49.734;8.490;2022-11-15T08:09:19;5.40;;;2.95;;
45466;SDS011;31212;49.734;8.490;2022-11-15T08:12:06;6.03;;;3.00;;
45466;SDS011;31212;49.734;8.490;2022-11-15T08:14:52;4.30;;;2.70;;
45466;SDS011;31212;49.734;8.490;2022-11-15T08:17:37;6.88;;;3.25;;
45466;SDS011;31212;49.734;8.490;2022-11-15T08:20:22;4.20;;;2.08;;
45466;SDS011;31212;49.734;8.490;2022-11-15T08:23:10;5.03;;;2.60;;
45466;SDS011;31212;49.734;8.490;2022-11-15T08:26:00;4.45;;;2.90;;
45466;SDS011;31212;49.734;8.490;2022-11-15T08:28:46;4.50;;;2.55;;
45466;SDS011;31212;49.734;8.490;2022-11-15T08:31:31;5.93;;;2.85;;
45466;SDS011;31212;49.734;8.490;2022-11-15T08:34:17;4.03;;;2.78;;
45466;SDS011;31212;49.734;8.490;2022-11-15T08:37:02;10.48;;;3.15;;
45466;SDS011;31212;49.734;8.490;2022-11-15T08:39:48;4.07;;;2.25;;
45466;SDS011;31212;49.734;8.490;2022-11-15T08:42:34;3.20;;;2.25;;
45466;SDS011;31212;49.734;8.490;2022-11-15T08:45:19;4.38;;;2.33;;
45466;SDS011;31212;49.734;8.490;2022-11-15T08:48:05;4.03;;;2.30;;
45466;SDS011;31212;49.734;8.490;2022-11-15T08:50:52;4.38;;;2.80;;
45466;SDS011;31212;49.734;8.490;2022-11-15T08:53:38;4.50;;;2.60;;
45466;SDS011;31212;49.734;8.490;2022-11-15T08:56:25;5.18;;;2.67;;
45466;SDS011;31212;49.734;8.490;2022-11-15T08:59:10;6.25;;;3.05;;
45466;SDS011;31212;49.734;8.490;2022-11-15T09:01:56;3.17;;;2.53;;
45466;SDS011;31212;49.734;8.490;2022-11-15T09:04:41;10.32;;;3.20;;
45466;SDS011;31212;49.734;8.490;2022-11-15T09:07:27;4.47;;;2.90;;
45466;SDS011;31212;49.734;8.490;2022-11-15T09:10:13;7.47;;;4.13;;
45466;SDS011;31212;49.734;8.490;2022-11-15T09:13:03;5.10;;;2.75;;
45466;SDS011;31212;49.734;8.490;2022-11-15T09:15:49;5.70;;;2.58;;
45466;SDS011;31212;49.734;8.490;2022-11-15T09:18:34;8.85;;;2.75;;
45466;SDS011;31212;49.734;8.490;2022-11-15T09:21:19;7.95;;;2.63;;
45466;SDS011;31212;49.734;8.490;2022-11-15T09:24:05;3.83;;;3.13;;
45466;SDS011;31212;49.734;8.490;2022-11-15T09:26:50;9.88;;;5.18;;
45466;SDS011;31212;49.734;8.490;2022-11-15T09:29:37;15.75;;;6.38;;
45466;SDS011;31212;49.734;8.490;2022-11-15T09:32:22;15.50;;;5.90;;
45466;SDS011;31212;49.734;8.490;2022-11-15T09:35:07;12.60;;;5.85;;
45466;SDS011;31212;49.734;8.490;2022-11-15T09:37:52;11.52;;;4.63;;
45466;SDS011;31212;49.734;8.490;2022-11-15T09:40:38;13.68;;;7.57;;
45466;SDS011;31212;49.734;8.490;2022-11-15T09:43:28;17.55;;;7.68;;
45466;SDS011;31212;49.734;8.490;2022-11-15T09:46:21;12.02;;;6.90;;
45466;SDS011;31212;49.734;8.490;2022-11-15T09:52:01;7.93;;;5.15;;
45466;SDS011;31212;49.734;8.490;2022-11-15T09:54:29;5.28;;;3.10;;
45466;SDS011;31212;49.734;8.490;2022-11-15T09:57:13;5.47;;;2.75;;
45466;SDS011;31212;49.734;8.490;2022-11-15T09:59:46;8.98;;;4.57;;
45466;SDS011;31212;49.734;8.490;2022-11-15T10:02:32;9.73;;;4.15;;
45466;SDS011;31212;49.734;8.490;2022-11-15T10:05:06;4.60;;;2.78;;
45466;SDS011;31212;49.734;8.490;2022-11-15T10:07:37;6.25;;;3.13;;
45466;SDS011;31212;49.734;8.490;2022-11-15T10:10:14;10.85;;;3.47;;
45466;SDS011;31212;49.734;8.490;2022-11-15T10:12:48;5.28;;;2.67;;
45466;SDS011;31212;49.734;8.490;2022-11-15T10:15:18;5.50;;;3.70;;
45466;SDS011;31212;49.734;8.490;2022-11-15T10:18:08;8.93;;;4.32;;
45466;SDS011;31212;49.734;8.490;2022-11-15T10:20:42;4.13;;;2.83;;
45466;SDS011;31212;49.734;8.490;2022-11-15T10:23:14;8.82;;;4.63;;
45466;SDS011;31212;49.734;8.490;2022-11-15T10:25:43;9.38;;;3.72;;
45466;SDS011;31212;49.734;8.490;2022-11-15T10:28:11;8.13;;;3.70;;
45466;SDS011;31212;49.734;8.490;2022-11-15T10:30:42;5.95;;;3.28;;
45466;SDS011;31212;49.734;8.490;2022-11-15T10:33:18;7.63;;;3.40;;
45466;SDS011;31212;49.734;8.490;2022-11-15T10:35:57;12.57;;;3.20;;
45466;SDS011;31212;49.734;8.490;2022-11-15T10:38:49;4.13;;;2.35;;
45466;SDS011;31212;49.734;8.490;2022-11-15T10:41:19;7.85;;;2.60;;
45466;SDS011;31212;49.734;8.490;2022-11-15T10:44:00;4.45;;;2.38;;
45466;SDS011;31212;49.734;8.490;2022-11-15T10:46:34;6.80;;;2.90;;
45466;SDS011;31212;49.734;8.490;2022-11-15T10:49:11;8.13;;;3.33;;
45466;SDS011;31212;49.734;8.490;2022-11-15T10:51:41;10.30;;;3.10;;
45466;SDS011;31212;49.734;8.490;2022-11-15T10:54:11;4.10;;;2.88;;
45466;SDS011;31212;49.734;8.490;2022-11-15T10:56:38;4.70;;;2.65;;
45466;SDS011;31212;49.734;8.490;2022-11-15T10:59:12;4.60;;;2.67;;
45466;SDS011;31212;49.734;8.490;2022-11-15T11:01:45;6.88;;;3.45;;
45466;SDS011;31212;49.734;8.490;2022-11-15T11:04:14;6.63;;;3.22;;
45466;SDS011;31212;49.734;8.490;2022-11-15T11:06:48;10.27;;;2.83;;
45466;SDS011;31212;49.734;8.490;2022-11-15T11:09:23;6.20;;;3.17;;
45466;SDS011;31212;49.734;8.490;2022-11-15T11:11:56;5.68;;;3.03;;
45466;SDS011;31212;49.734;8.490;2022-11-15T11:14:24;5.95;;;2.75;;
45466;SDS011;31212;49.734;8.490;2022-11-15T11:16:54;8.27;;;3.03;;
45466;SDS011;31212;49.734;8.490;2022-11-15T11:22:23;5.78;;;2.92;;
45466;SDS011;31212;49.734;8.490;2022-11-15T11:24:59;4.25;;;2.10;;
45466;SDS011;31212;49.734;8.490;2022-11-15T11:27:36;3.60;;;2.47;;
45466;SDS011;31212;49.734;8.490;2022-11-15T11:30:14;3.75;;;2.00;;
45466;SDS011;31212;49.734;8.490;2022-11-15T11:32:55;4.05;;;2.47;;
45466;SDS011;31212;49.734;8.490;2022-11-15T11:35:32;3.08;;;1.40;;
45466;SDS011;31212;49.734;8.490;2022-11-15T11:38:15;2.35;;;1.50;;
45466;SDS011;31212;49.734;8.490;2022-11-15T11:40:52;1.95;;;1.38;;
45466;SDS011;31212;49.734;8.490;2022-11-15T11:43:28;2.17;;;1.52;;
45466;SDS011;31212;49.734;8.490;2022-11-15T11:46:15;2.35;;;1.42;;
45466;SDS011;31212;49.734;8.490;2022-11-15T11:48:55;7.63;;;2.30;;
45466;SDS011;31212;49.734;8.490;2022-11-15T11:51:38;7.00;;;2.15;;
45466;SDS011;31212;49.734;8.490;2022-11-15T11:54:10;7.95;;;2.17;;
45466;SDS011;31212;49.734;8.490;2022-11-15T11:56:41;3.15;;;1.35;;
45466;SDS011;31212;49.734;8.490;2022-11-15T11:59:11;3.75;;;1.60;;
45466;SDS011;31212;49.734;8.490;2022-11-15T12:01:44;3.78;;;1.77;;
45466;SDS011;31212;49.734;8.490;2022-11-15T12:04:13;4.55;;;1.52;;
45466;SDS011;31212;49.734;8.490;2022-11-15T12:06:46;1.30;;;1.08;;
45466;SDS011;31212;49.734;8.490;2022-11-15T12:09:17;1.17;;;0.88;;
45466;SDS011;31212;49.734;8.490;2022-11-15T12:11:50;2.55;;;1.13;;
45466;SDS011;31212;49.734;8.490;2022-11-15T12:14:24;2.05;;;1.10;;
45466;SDS011;31212;49.734;8.490;2022-11-15T12:16:55;5.38;;;1.40;;
45466;SDS011;31212;49.734;8.490;2022-11-15T12:19:23;1.58;;;1.02;;
45466;SDS011;31212;49.734;8.490;2022-11-15T12:21:54;1.20;;;0.90;;
45466;SDS011;31212;49.734;8.490;2022-11-15T12:24:27;1.77;;;1.38;;
45466;SDS011;31212;49.734;8.490;2022-11-15T12:26:57;4.55;;;0.95;;
45466;SDS011;31212;49.734;8.490;2022-11-15T12:29:28;1.58;;;1.00;;
45466;SDS011;31212;49.734;8.490;2022-11-15T12:32:00;0.70;;;0.70;;
45466;SDS011;31212;49.734;8.490;2022-11-15T12:34:30;1.70;;;0.90;;
45466;SDS011;31212;49.734;8.490;2022-11-15T12:40:28;3.65;;;1.23;;
45466;SDS011;31212;49.734;8.490;2022-11-15T12:43:01;1.15;;;0.90;;
45466;SDS011;31212;49.734;8.490;2022-11-15T12:45:52;7.32;;;1.35;;
45466;SDS011;31212;49.734;8.490;2022-11-15T12:51:22;0.73;;;0.73;;
45466;SDS011;31212;49.734;8.490;2022-11-15T13:03:19;4.22;;;0.82;;
45466;SDS011;31212;49.734;8.490;2022-11-15T13:05:57;2.15;;;1.00;;
45466;SDS011;31212;49.734;8.490;2022-11-15T13:17:23;3.50;;;1.00;;
45466;SDS011;31212;49.734;8.490;2022-11-15T13:20:01;0.80;;;0.60;;
45466;SDS011;31212;49.734;8.490;2022-11-15T13:22:41;1.00;;;0.90;;
45466;SDS011;31212;49.734;8.490;2022-11-15T13:28:18;1.60;;;0.70;;
45466;SDS011;31212;49.734;8.490;2022-11-15T13:30:50;0.82;;;0.80;;
45466;SDS011;31212;49.734;8.490;2022-11-15T13:33:19;3.00;;;0.85;;
45466;SDS011;31212;49.734;8.490;2022-11-15T13:35:54;1.88;;;1.33;;
45466;SDS011;31212;49.734;8.490;2022-11-15T13:38:25;1.55;;;0.98;;
45466;SDS011;31212;49.734;8.490;2022-11-15T13:40:53;1.23;;;0.77;;
45466;SDS011;31212;49.734;8.490;2022-11-15T13:43:26;1.75;;;1.23;;
45466;SDS011;31212;49.734;8.490;2022-11-15T13:46:07;4.55;;;1.10;;
45466;SDS011;31212;49.734;8.490;2022-11-15T13:48:37;1.38;;;1.27;;
45466;SDS011;31212;49.734;8.490;2022-11-15T13:51:07;0.60;;;0.60;;
45466;SDS011;31212;49.734;8.490;2022-11-15T13:53:42;1.77;;;1.05;;
45466;SDS011;31212;49.734;8.490;2022-11-15T13:56:13;1.00;;;0.80;;
45466;SDS011;31212;49.734;8.490;2022-11-15T13:58:41;1.38;;;0.70;;
45466;SDS011;31212;49.734;8.490;2022-11-15T14:01:13;2.60;;;1.10;;
45466;SDS011;31212;49.734;8.490;2022-11-15T14:03:48;1.48;;;0.82;;
45466;SDS011;31212;49.734;8.490;2022-11-15T14:06:18;1.35;;;1.25;;
45466;SDS011;31212;49.734;8.490;2022-11-15T14:11:58;0.88;;;0.80;;
45466;SDS011;31212;49.734;8.490;2022-11-15T14:14:26;0.52;;;0.47;;
45466;SDS011;31212;49.734;8.490;2022-11-15T14:16:55;4.43;;;0.90;;
45466;SDS011;31212;49.734;8.490;2022-11-15T14:19:36;1.38;;;0.93;;
45466;SDS011;31212;49.734;8.490;2022-11-15T14:22:08;1.95;;;0.85;;
45466;SDS011;31212;49.734;8.490;2022-11-15T14:24:43;1.98;;;0.95;;
45466;SDS011;31212;49.734;8.490;2022-11-15T14:27:17;8.20;;;1.10;;
45466;SDS011;31212;49.734;8.490;2022-11-15T14:29:46;4.07;;;1.30;;
45466;SDS011;31212;49.734;8.490;2022-11-15T14:32:15;2.00;;;1.10;;
45466;SDS011;31212;49.734;8.490;2022-11-15T14:34:44;1.38;;;0.77;;
45466;SDS011;31212;49.734;8.490;2022-11-15T14:37:18;1.20;;;0.75;;
45466;SDS011;31212;49.734;8.490;2022-11-15T14:39:47;1.23;;;0.70;;
45466;SDS011;31212;49.734;8.490;2022-11-15T14:42:13;1.92;;;0.93;;
45466;SDS011;31212;49.734;8.490;2022-11-15T14:44:40;1.50;;;0.80;;
45466;SDS011;31212;49.734;8.490;2022-11-15T14:47:07;1.05;;;0.85;;
45466;SDS011;31212;49.734;8.490;2022-11-15T14:49:35;1.08;;;0.77;;
45466;SDS011;31212;49.734;8.490;2022-11-15T14:52:01;2.33;;;1.35;;
45466;SDS011;31212;49.734;8.490;2022-11-15T14:54:28;0.90;;;0.90;;
45466;SDS011;31212;49.734;8.490;2022-11-15T14:56:54;2.38;;;0.50;;
45466;SDS011;31212;49.734;8.490;2022-11-15T14:59:21;0.95;;;0.82;;
45466;SDS011;31212;49.734;8.490;2022-11-15T15:01:47;1.58;;;0.88;;
45466;SDS011;31212;49.734;8.490;2022-11-15T15:04:14;1.20;;;0.77;;
45466;SDS011;31212;49.734;8.490;2022-11-15T15:06:42;0.70;;;0.70;;
45466;SDS011;31212;49.734;8.490;2022-11-15T15:09:08;4.78;;;1.77;;
45466;SDS011;31212;49.734;8.490;2022-11-15T15:11:35;2.47;;;1.10;;
45466;SDS011;31212;49.734;8.490;2022-11-15T15:14:01;2.33;;;0.98;;
45466;SDS011;31212;49.734;8.490;2022-11-15T15:16:28;2.65;;;1.25;;
45466;SDS011;31212;49.734;8.490;2022-11-15T15:18:54;1.75;;;1.10;;
45466;SDS011;31212;49.734;8.490;2022-11-15T15:21:21;3.00;;;1.23;;
45466;SDS011;31212;49.734;8.490;2022-11-15T15:23:51;1.67;;;0.90;;
45466;SDS011;31212;49.734;8.490;2022-11-15T15:26:19;1.92;;;1.50;;
45466;SDS011;31212;49.734;8.490;2022-11-15T15:28:45;3.55;;;1.35;;
45466;SDS011;31212;49.734;8.490;2022-11-15T15:31:13;2.47;;;1.13;;
45466;SDS011;31212;49.734;8.490;2022-11-15T15:33:40;1.73;;;0.82;;
45466;SDS011;31212;49.734;8.490;2022-11-15T15:36:08;2.60;;;1.83;;
45466;SDS011;31212;49.734;8.490;2022-11-15T15:38:36;1.55;;;1.33;;
45466;SDS011;31212;49.734;8.490;2022-11-15T15:41:08;2.67;;;1.60;;
45466;SDS011;31212;49.734;8.490;2022-11-15T15:43:36;5.75;;;2.25;;
45466;SDS011;31212;49.734;8.490;2022-11-15T15:46:02;3.40;;;1.67;;
45466;SDS011;31212;49.734;8.490;2022-11-15T15:48:29;2.70;;;1.98;;
45466;SDS011;31212;49.734;8.490;2022-11-15T15:50:58;2.78;;;1.70;;
45466;SDS011;31212;49.734;8.490;2022-11-15T15:53:25;1.88;;;1.27;;
45466;SDS011;31212;49.734;8.490;2022-11-15T15:55:51;7.10;;;2.17;;
45466;SDS011;31212;49.734;8.490;2022-11-15T15:58:20;6.72;;;2.92;;
45466;SDS011;31212;49.734;8.490;2022-11-15T16:00:46;7.82;;;4.05;;
45466;SDS011;31212;49.734;8.490;2022-11-15T16:03:13;6.32;;;4.43;;
45466;SDS011;31212;49.734;8.490;2022-11-15T16:05:39;4.78;;;3.30;;
45466;SDS011;31212;49.734;8.490;2022-11-15T16:08:07;5.53;;;3.47;;
45466;SDS011;31212;49.734;8.490;2022-11-15T16:10:41;9.23;;;3.38;;
45466;SDS011;31212;49.734;8.490;2022-11-15T16:13:07;4.63;;;2.70;;
45466;SDS011;31212;49.734;8.490;2022-11-15T16:15:35;7.05;;;4.03;;
45466;SDS011;31212;49.734;8.490;2022-11-15T16:18:04;4.72;;;2.70;;
45466;SDS011;31212;49.734;8.490;2022-11-15T16:20:34;5.78;;;2.72;;
45466;SDS011;31212;49.734;8.490;2022-11-15T16:23:03;5.55;;;2.55;;
45466;SDS011;31212;49.734;8.490;2022-11-15T16:25:32;15.95;;;6.65;;
45466;SDS011;31212;49.734;8.490;2022-11-15T16:28:02;6.03;;;3.47;;
45466;SDS011;31212;49.734;8.490;2022-11-15T16:30:29;11.85;;;5.05;;
45466;SDS011;31212;49.734;8.490;2022-11-15T16:32:56;3.60;;;2.72;;
45466;SDS011;31212;49.734;8.490;2022-11-15T16:35:23;7.55;;;3.15;;
45466;SDS011;31212;49.734;8.490;2022-11-15T16:37:50;5.68;;;2.03;;
45466;SDS011;31212;49.734;8.490;2022-11-15T16:40:22;6.05;;;2.67;;
45466;SDS011;31212;49.734;8.490;2022-11-15T16:42:52;2.70;;;1.60;;
45466;SDS011;31212;49.734;8.490;2022-11-15T16:45:20;1.63;;;1.23;;
45466;SDS011;31212;49.734;8.490;2022-11-15T16:47:47;5.53;;;2.80;;